Terminal Aerodrome Forecast
Issued by NWS Portland, OR

Home | Current Version | Previous Version | Text Only | Print | Product List | Glossary On
Versions: 1 2 3 4 5 6 7 8 9 10 11 12 13 14 15 16 17 18 19 20 21 22 23 24 25 26 27 28
000
FTUS46 KPQR 222345
TAFEUG
TAF
KEUG 222345Z 2300/2324 24010KT 2SM RA BR BKN015 OVC040
     FM230200 23010KT 6SM -RA BR SCT025 OVC050
     FM230600 17007KT P6SM -SHRA SCT025 OVC040
     FM231800 20010KT P6SM -SHRA BKN050=

USA.gov is the U.S. government's official web portal to all federal, state and local government web resources and services.